Time;durP1;ratioP1;P1;durP2;ratioP2;P2;SDS_P1;SDS_P2;PMS_P1;PMS_P2;Temp;Humidity;BMP_temperature;BMP_pressure;BME280_temperature;BME280_humidity;BME280_pressure;Samples;Min_cycle;Max_cycle;Signal;HPM_P1;HPM_P2
2022/03/06 00:01:25;;;;;;;21.83;14.40;;;0.00;99.90;;;;;;5082381;28;20501;-75
2022/03/06 00:03:51;;;;;;;22.73;15.30;;;0.10;99.90;;;;;;5075581;28;20035;-75
2022/03/06 00:06:18;;;;;;;28.83;14.80;;;0.00;99.90;;;;;;5087083;28;20690;-75
2022/03/06 00:08:44;;;;;;;21.07;13.87;;;0.00;99.90;;;;;;5078188;28;20130;-75
2022/03/06 00:11:10;;;;;;;22.17;14.90;;;0.00;99.90;;;;;;5060621;28;20440;-76
2022/03/06 00:13:36;;;;;;;22.63;14.87;;;0.00;99.90;;;;;;5089202;28;20055;-76
2022/03/06 00:16:02;;;;;;;22.17;14.33;;;0.00;99.90;;;;;;5098062;28;20882;-75
2022/03/06 00:18:28;;;;;;;21.90;14.60;;;0.00;99.90;;;;;;5087089;28;20525;-75
2022/03/06 00:20:55;;;;;;;20.50;14.57;;;-0.10;99.90;;;;;;5060772;28;20294;-75
2022/03/06 00:23:23;;;;;;;19.67;14.00;;;-0.10;99.90;;;;;;5074258;28;20544;-74
2022/03/06 00:25:48;;;;;;;23.73;14.40;;;-0.10;99.90;;;;;;5080288;28;20356;-75
2022/03/06 00:28:14;;;;;;;22.37;15.17;;;-0.20;99.90;;;;;;5059727;28;20298;-75
2022/03/06 00:30:42;;;;;;;22.67;14.90;;;-0.20;99.90;;;;;;5074767;28;20054;-74
2022/03/06 00:33:08;;;;;;;21.37;14.10;;;-0.20;99.90;;;;;;5058324;28;20692;-74
2022/03/06 00:35:34;;;;;;;20.33;13.57;;;-0.20;99.90;;;;;;5078408;28;20293;-74
2022/03/06 00:38:00;;;;;;;20.37;14.60;;;-0.20;99.90;;;;;;5053780;28;20109;-74
2022/03/06 00:40:27;;;;;;;22.40;14.63;;;-0.20;99.90;;;;;;5059186;28;20650;-73
2022/03/06 00:42:53;;;;;;;24.00;14.37;;;-0.10;99.90;;;;;;5059611;28;20424;-74
2022/03/06 00:45:19;;;;;;;19.67;14.10;;;-0.10;99.90;;;;;;5102179;28;20310;-75
2022/03/06 00:47:44;;;;;;;25.03;14.67;;;-0.10;99.90;;;;;;5083714;28;20051;-74
2022/03/06 00:50:10;;;;;;;22.23;14.63;;;0.00;99.90;;;;;;5061314;28;20305;-74
2022/03/06 00:52:37;;;;;;;19.83;13.43;;;0.00;99.90;;;;;;5076841;28;20040;-75
2022/03/06 00:55:03;;;;;;;22.20;14.83;;;0.10;99.90;;;;;;5061407;28;20669;-75
2022/03/06 00:57:30;;;;;;;20.57;14.33;;;0.10;99.90;;;;;;5076630;28;20639;-75
2022/03/06 00:59:56;;;;;;;24.17;14.37;;;0.10;99.90;;;;;;5100303;28;20314;-75
2022/03/06 01:02:22;;;;;;;20.77;14.47;;;0.10;99.90;;;;;;5098429;28;20865;-75
2022/03/06 01:04:48;;;;;;;19.07;14.33;;;0.20;99.90;;;;;;5041324;28;20085;-76
2022/03/06 01:07:13;;;;;;;19.80;13.90;;;0.20;99.90;;;;;;5075451;28;20102;-75
2022/03/06 01:09:39;;;;;;;22.37;14.13;;;0.20;99.90;;;;;;5094599;27;20307;-75
2022/03/06 01:12:07;;;;;;;20.30;14.40;;;0.10;99.90;;;;;;5041136;28;20052;-73
2022/03/06 01:14:34;;;;;;;19.63;14.27;;;0.10;99.90;;;;;;5060649;28;20310;-75
2022/03/06 01:16:59;;;;;;;20.97;14.60;;;0.10;99.90;;;;;;5058180;28;20836;-75
2022/03/06 01:19:25;;;;;;;20.60;14.47;;;0.10;99.90;;;;;;5076238;28;20297;-74
2022/03/06 01:21:51;;;;;;;18.60;14.03;;;0.20;99.90;;;;;;5060579;28;20043;-74
2022/03/06 01:24:16;;;;;;;25.47;14.10;;;0.20;99.90;;;;;;5077423;28;20527;-75
2022/03/06 01:26:42;;;;;;;20.63;13.90;;;0.20;99.90;;;;;;5109282;27;20518;-75
2022/03/06 01:29:08;;;;;;;22.37;13.97;;;0.20;99.90;;;;;;5058288;28;20062;-73
2022/03/06 01:31:35;;;;;;;18.57;13.17;;;0.20;99.90;;;;;;5075544;28;20062;-75
2022/03/06 01:34:02;;;;;;;19.80;13.33;;;0.30;99.90;;;;;;5076233;28;20051;-74
2022/03/06 01:36:29;;;;;;;21.63;13.90;;;0.30;99.90;;;;;;5059985;28;20339;-73
2022/03/06 01:38:54;;;;;;;22.33;13.60;;;0.30;99.90;;;;;;5052918;28;20309;-75
2022/03/06 01:41:20;;;;;;;19.00;12.87;;;0.40;99.90;;;;;;5037697;28;20699;-74
2022/03/06 01:43:46;;;;;;;19.93;13.10;;;0.40;99.90;;;;;;5057693;28;20086;-73
2022/03/06 01:46:13;;;;;;;20.47;12.80;;;0.50;99.90;;;;;;5101175;27;20037;-74
2022/03/06 01:48:40;;;;;;;20.03;12.73;;;0.50;99.90;;;;;;5074441;28;20051;-74
2022/03/06 01:51:06;;;;;;;18.27;12.50;;;0.50;99.90;;;;;;5060011;28;20306;-74
2022/03/06 01:53:31;;;;;;;18.17;12.07;;;0.50;99.90;;;;;;5075760;28;20859;-76
2022/03/06 01:55:57;;;;;;;17.57;12.67;;;0.50;99.90;;;;;;5095251;28;20050;-74
2022/03/06 01:58:23;;;;;;;17.17;11.83;;;0.60;99.90;;;;;;5077482;28;20050;-76
2022/03/06 02:00:50;;;;;;;18.60;12.10;;;0.60;99.90;;;;;;5084831;28;20579;-75
2022/03/06 02:03:17;;;;;;;18.30;11.30;;;0.60;99.90;;;;;;5101622;27;20400;-76
2022/03/06 02:05:44;;;;;;;16.97;11.73;;;0.70;99.90;;;;;;5077536;28;20036;-74
2022/03/06 02:08:10;;;;;;;17.00;11.50;;;0.70;99.90;;;;;;5075509;28;20306;-76
2022/03/06 02:10:37;;;;;;;19.63;11.80;;;0.70;99.90;;;;;;5067255;28;20307;-75
2022/03/06 02:13:03;;;;;;;18.97;10.83;;;0.70;99.90;;;;;;5086262;28;20305;-76
2022/03/06 02:15:28;;;;;;;16.73;11.17;;;0.80;99.90;;;;;;5075700;28;20302;-74
2022/03/06 02:17:54;;;;;;;15.73;10.60;;;0.80;99.90;;;;;;5058081;28;20122;-75
2022/03/06 02:20:22;;;;;;;17.40;11.53;;;0.90;99.90;;;;;;5075001;28;20039;-75
2022/03/06 02:22:50;;;;;;;19.30;10.83;;;0.90;99.90;;;;;;5071486;28;20043;-75
2022/03/06 02:25:18;;;;;;;15.40;9.97;;;0.90;99.90;;;;;;5086720;28;20303;-73
2022/03/06 02:27:44;;;;;;;17.00;10.73;;;0.90;99.90;;;;;;5074353;28;20302;-76
2022/03/06 02:30:12;;;;;;;16.77;10.67;;;0.90;99.90;;;;;;5075872;28;20379;-76
2022/03/06 02:32:39;;;;;;;18.10;10.73;;;0.90;99.90;;;;;;5057838;28;20048;-76
2022/03/06 02:35:07;;;;;;;15.97;10.47;;;0.90;99.90;;;;;;5060079;28;20375;-74
2022/03/06 02:37:32;;;;;;;15.70;10.63;;;0.90;99.90;;;;;;5042972;28;20302;-74
2022/03/06 02:40:02;;;;;;;15.83;9.80;;;1.00;99.90;;;;;;5069014;28;20312;-76
2022/03/06 02:42:29;;;;;;;15.10;9.77;;;1.00;99.90;;;;;;5054911;28;20101;-73
2022/03/06 02:44:56;;;;;;;16.47;9.40;;;0.90;99.90;;;;;;5058895;28;20646;-75
2022/03/06 02:47:22;;;;;;;15.20;9.70;;;0.90;99.90;;;;;;5086215;28;20297;-75
2022/03/06 02:49:49;;;;;;;15.00;10.00;;;0.90;99.90;;;;;;5076596;28;20308;-75
2022/03/06 02:52:14;;;;;;;14.50;9.47;;;0.90;99.90;;;;;;5057916;28;20051;-74
2022/03/06 02:54:40;;;;;;;14.43;9.63;;;0.80;99.90;;;;;;5076950;28;20298;-75
2022/03/06 02:57:08;;;;;;;12.73;9.67;;;0.90;99.90;;;;;;5098734;28;20574;-75
2022/03/06 02:59:34;;;;;;;14.23;9.37;;;0.90;99.90;;;;;;5061461;28;20515;-76
2022/03/06 03:02:00;;;;;;;14.47;9.47;;;0.80;99.90;;;;;;5095595;28;20351;-77
2022/03/06 03:04:26;;;;;;;15.07;9.90;;;0.80;99.90;;;;;;5055427;28;20400;-76
2022/03/06 03:06:52;;;;;;;19.33;9.70;;;0.70;99.90;;;;;;5073135;28;20106;-74
2022/03/06 03:09:19;;;;;;;17.83;8.80;;;0.70;99.90;;;;;;5085230;28;20036;-75
2022/03/06 03:11:46;;;;;;;15.77;9.53;;;0.70;99.90;;;;;;5098755;28;20294;-75
2022/03/06 03:14:14;;;;;;;15.87;10.00;;;0.70;99.90;;;;;;5077585;28;20363;-76
2022/03/06 03:16:40;;;;;;;15.47;10.00;;;0.70;99.90;;;;;;5069593;28;20298;-76
2022/03/06 03:19:06;;;;;;;15.03;9.33;;;0.60;99.90;;;;;;5098644;28;20297;-74
2022/03/06 03:21:32;;;;;;;15.47;8.83;;;0.60;99.90;;;;;;5071934;28;20328;-75
2022/03/06 03:23:58;;;;;;;13.87;8.87;;;0.50;99.90;;;;;;5080754;28;20048;-74
2022/03/06 03:26:24;;;;;;;15.90;9.83;;;0.50;99.90;;;;;;5082819;28;20102;-74
2022/03/06 03:28:50;;;;;;;16.33;9.30;;;0.40;99.90;;;;;;5103054;28;20294;-75
2022/03/06 03:31:18;;;;;;;15.93;9.07;;;0.50;99.90;;;;;;5055978;28;20298;-74
2022/03/06 03:33:44;;;;;;;13.50;8.63;;;0.30;99.90;;;;;;5104045;28;20298;-75
2022/03/06 03:36:09;;;;;;;17.23;8.43;;;0.30;99.90;;;;;;5089314;28;20306;-74
2022/03/06 03:38:35;;;;;;;14.73;9.17;;;0.30;99.90;;;;;;5087434;28;20495;-76
2022/03/06 03:41:01;;;;;;;13.03;8.70;;;0.30;99.90;;;;;;5067859;28;20093;-75
2022/03/06 03:43:27;;;;;;;11.73;8.63;;;0.20;99.90;;;;;;5053873;28;20050;-75
2022/03/06 03:45:53;;;;;;;14.23;8.67;;;0.20;99.90;;;;;;5071603;28;20302;-75
2022/03/06 03:48:20;;;;;;;14.83;9.17;;;0.20;99.90;;;;;;5054645;28;20067;-76
2022/03/06 03:50:46;;;;;;;15.40;9.50;;;0.20;99.90;;;;;;5103482;28;20404;-73
2022/03/06 03:53:11;;;;;;;13.10;8.50;;;0.20;99.90;;;;;;5072154;28;20309;-76
2022/03/06 03:55:37;;;;;;;14.27;9.00;;;0.10;99.90;;;;;;5055445;28;20061;-73
2022/03/06 03:58:03;;;;;;;13.30;8.17;;;0.10;99.90;;;;;;5056348;28;20054;-75
2022/03/06 04:00:29;;;;;;;13.63;9.00;;;0.10;99.90;;;;;;5039523;28;20040;-75
2022/03/06 04:02:54;;;;;;;13.67;8.20;;;0.10;99.90;;;;;;5073388;28;20487;-75
2022/03/06 04:05:21;;;;;;;12.57;8.67;;;-0.10;99.90;;;;;;5074209;28;20044;-75
2022/03/06 04:07:47;;;;;;;15.80;8.40;;;-0.10;99.90;;;;;;5102596;28;20530;-75
2022/03/06 04:10:13;;;;;;;13.47;8.87;;;-0.10;99.90;;;;;;5057948;28;20377;-75
2022/03/06 04:12:38;;;;;;;15.57;8.63;;;-0.20;99.90;;;;;;5104895;28;20035;-76
2022/03/06 04:15:05;;;;;;;11.40;8.30;;;-0.20;99.90;;;;;;5057436;28;20370;-76
2022/03/06 04:17:31;;;;;;;13.40;8.43;;;-0.20;99.90;;;;;;5063358;28;20039;-76
2022/03/06 04:19:56;;;;;;;13.80;8.03;;;-0.30;99.90;;;;;;5111606;27;20389;-74
2022/03/06 04:22:23;;;;;;;16.40;8.67;;;-0.30;99.90;;;;;;5070103;28;20063;-74
2022/03/06 04:24:49;;;;;;;20.00;9.00;;;-0.40;99.90;;;;;;5115523;27;20099;-76
2022/03/06 04:27:15;;;;;;;13.80;8.53;;;-0.40;99.90;;;;;;5060486;28;20733;-77
2022/03/06 04:29:40;;;;;;;13.93;9.13;;;-0.40;99.90;;;;;;5076986;28;20330;-74
2022/03/06 04:32:07;;;;;;;16.27;8.97;;;-0.40;99.90;;;;;;5093995;28;20561;-74
2022/03/06 04:34:32;;;;;;;15.67;9.47;;;-0.40;99.90;;;;;;5063574;28;20046;-74
2022/03/06 04:36:58;;;;;;;14.63;9.30;;;-0.40;99.90;;;;;;5075546;28;20868;-73
2022/03/06 04:39:25;;;;;;;14.53;9.13;;;-0.40;99.90;;;;;;5084515;28;20079;-75
2022/03/06 04:41:51;;;;;;;17.23;8.70;;;-0.40;99.90;;;;;;5091446;28;20040;-76
2022/03/06 04:44:17;;;;;;;14.10;8.70;;;-0.40;99.90;;;;;;5086706;28;20343;-74
2022/03/06 04:46:43;;;;;;;15.00;8.80;;;-0.40;99.90;;;;;;5100215;28;20286;-75
2022/03/06 04:49:09;;;;;;;14.27;8.47;;;-0.30;99.90;;;;;;5107692;27;20059;-76
2022/03/06 04:51:35;;;;;;;12.80;7.77;;;-0.40;99.90;;;;;;5075817;28;20397;-76
2022/03/06 04:54:02;;;;;;;12.33;8.30;;;-0.40;99.90;;;;;;5105519;28;20044;-75
2022/03/06 04:56:29;;;;;;;13.57;8.00;;;-0.50;99.90;;;;;;5076013;28;20385;-74
2022/03/06 04:58:55;;;;;;;14.70;8.37;;;-0.50;99.90;;;;;;5092678;28;20342;-75
2022/03/06 05:01:21;;;;;;;11.53;7.93;;;-0.50;99.90;;;;;;5078523;28;20736;-74
2022/03/06 05:03:47;;;;;;;12.43;7.30;;;-0.50;99.90;;;;;;5106074;27;20051;-75
2022/03/06 05:06:12;;;;;;;12.20;7.03;;;-0.50;99.90;;;;;;5075157;28;20454;-75
2022/03/06 05:08:38;;;;;;;12.83;6.97;;;-0.50;99.90;;;;;;5058303;28;20044;-74
2022/03/06 05:11:04;;;;;;;12.30;6.73;;;-0.50;99.90;;;;;;5101718;27;20067;-73
2022/03/06 05:13:31;;;;;;;13.03;6.67;;;-0.30;99.90;;;;;;5058356;28;20105;-75
2022/03/06 05:15:57;;;;;;;13.47;6.73;;;-0.40;99.90;;;;;;5057592;28;20044;-74
2022/03/06 05:18:22;;;;;;;14.37;6.70;;;-0.40;99.90;;;;;;5056810;28;20313;-73
2022/03/06 05:20:48;;;;;;;15.13;6.60;;;-0.40;99.90;;;;;;5101086;28;20075;-74
2022/03/06 05:23:14;;;;;;;11.50;6.13;;;-0.40;99.90;;;;;;5092854;28;20044;-75
2022/03/06 05:25:40;;;;;;;10.83;6.07;;;-0.40;99.90;;;;;;5059559;28;20300;-73
2022/03/06 05:28:06;;;;;;;12.10;6.20;;;-0.40;99.90;;;;;;5061035;28;20466;-73
2022/03/06 05:30:33;;;;;;;9.50;5.93;;;-0.40;99.90;;;;;;5073960;28;20450;-76
2022/03/06 05:32:59;;;;;;;11.13;5.90;;;-0.40;99.90;;;;;;5076173;28;20082;-74
2022/03/06 05:35:24;;;;;;;10.37;5.73;;;-0.40;99.90;;;;;;5045531;28;20329;-74
2022/03/06 05:37:50;;;;;;;10.23;5.77;;;-0.40;99.90;;;;;;5059469;28;20048;-75
2022/03/06 05:40:16;;;;;;;10.93;5.87;;;-0.40;99.90;;;;;;5102145;28;20048;-75
2022/03/06 05:42:41;;;;;;;8.83;5.20;;;-0.30;99.90;;;;;;5074321;28;20747;-75
2022/03/06 05:45:08;;;;;;;7.47;5.03;;;-0.30;99.90;;;;;;5056350;28;20038;-74
2022/03/06 05:47:35;;;;;;;9.00;5.07;;;-0.30;99.90;;;;;;5073643;28;20079;-74
2022/03/06 05:50:02;;;;;;;11.37;5.37;;;-0.30;99.90;;;;;;5074814;28;20306;-74
2022/03/06 05:52:27;;;;;;;9.10;4.93;;;-0.40;99.90;;;;;;5059862;28;20343;-74
2022/03/06 05:54:53;;;;;;;10.97;5.80;;;-0.40;99.90;;;;;;5084584;28;20745;-74
2022/03/06 05:57:19;;;;;;;8.03;5.20;;;-0.40;99.90;;;;;;5058029;28;20051;-74
2022/03/06 05:59:44;;;;;;;9.53;5.17;;;-0.40;99.90;;;;;;5102850;27;20041;-75
2022/03/06 06:02:10;;;;;;;9.30;4.70;;;-0.40;99.90;;;;;;5072502;28;20576;-73
2022/03/06 06:04:37;;;;;;;11.77;5.90;;;-0.40;99.90;;;;;;5075429;28;20502;-74
2022/03/06 06:07:03;;;;;;;13.60;5.47;;;-0.40;99.90;;;;;;5101930;28;20049;-74
2022/03/06 06:09:29;;;;;;;12.90;5.73;;;-0.40;99.90;;;;;;5078503;28;20289;-75
2022/03/06 06:11:55;;;;;;;10.10;4.63;;;-0.40;99.90;;;;;;5071376;28;20351;-75
2022/03/06 06:14:20;;;;;;;8.43;5.37;;;-0.20;99.90;;;;;;5074540;28;20035;-74
2022/03/06 06:16:46;;;;;;;8.90;5.00;;;-0.30;99.90;;;;;;5056524;28;20048;-74
2022/03/06 06:19:12;;;;;;;10.07;5.33;;;-0.20;99.90;;;;;;5065162;28;20503;-75
2022/03/06 06:21:43;;;;;;;11.30;5.10;;;-0.20;99.90;;;;;;5073223;28;20044;-74
2022/03/06 06:24:09;;;;;;;11.33;5.13;;;-0.20;99.90;;;;;;5074564;28;20063;-75
2022/03/06 06:26:35;;;;;;;11.33;5.17;;;-0.20;99.90;;;;;;5072006;28;20290;-76
2022/03/06 06:29:01;;;;;;;9.03;4.97;;;-0.20;99.90;;;;;;5073618;28;20301;-75
2022/03/06 06:31:27;;;;;;;11.87;4.93;;;-0.10;99.90;;;;;;5058928;28;20375;-75
2022/03/06 06:33:52;;;;;;;9.60;4.87;;;-0.10;99.90;;;;;;5073086;28;20062;-74
2022/03/06 06:36:18;;;;;;;10.43;5.03;;;-0.10;99.90;;;;;;5056246;28;20119;-75
2022/03/06 06:38:45;;;;;;;10.20;4.87;;;0.00;99.90;;;;;;5106249;28;20097;-75
2022/03/06 06:41:12;;;;;;;9.77;4.77;;;0.00;99.90;;;;;;5077341;28;20309;-73
2022/03/06 06:43:38;;;;;;;8.73;5.03;;;0.10;99.90;;;;;;5075257;28;20309;-73
2022/03/06 06:46:04;;;;;;;11.03;5.00;;;0.10;99.90;;;;;;5049989;28;20298;-75
2022/03/06 06:48:30;;;;;;;8.57;4.50;;;0.20;99.90;;;;;;5072020;28;20355;-74
2022/03/06 06:50:55;;;;;;;10.03;4.83;;;0.30;99.90;;;;;;5063038;28;20044;-74
2022/03/06 06:53:21;;;;;;;9.27;4.47;;;0.40;99.90;;;;;;5058241;28;20499;-75
2022/03/06 06:55:48;;;;;;;10.47;4.40;;;0.40;99.90;;;;;;5058007;28;20035;-73
2022/03/06 06:58:14;;;;;;;10.43;4.90;;;0.50;99.90;;;;;;5092029;28;20537;-74
2022/03/06 07:00:41;;;;;;;11.33;4.57;;;0.60;99.90;;;;;;5101416;27;20302;-75
2022/03/06 07:03:07;;;;;;;7.17;4.77;;;0.80;99.90;;;;;;5075149;28;20056;-75
2022/03/06 07:05:33;;;;;;;11.80;4.70;;;0.70;99.90;;;;;;5072707;28;20298;-75
2022/03/06 07:07:58;;;;;;;8.70;4.10;;;0.80;99.90;;;;;;5072636;28;20379;-73
2022/03/06 07:10:24;;;;;;;8.23;4.30;;;0.80;99.90;;;;;;5074292;28;20135;-73
2022/03/06 07:12:54;;;;;;;6.73;4.03;;;0.90;99.90;;;;;;5078321;28;20044;-74
2022/03/06 07:15:21;;;;;;;7.30;4.23;;;1.00;99.90;;;;;;5079589;28;20054;-75
2022/03/06 07:17:48;;;;;;;7.43;4.10;;;1.00;99.90;;;;;;5071369;28;20302;-74
2022/03/06 07:20:14;;;;;;;9.57;3.60;;;1.20;99.90;;;;;;5078445;28;20385;-73
2022/03/06 07:22:39;;;;;;;7.80;3.80;;;1.20;99.90;;;;;;5056233;28;20449;-74
2022/03/06 07:25:06;;;;;;;8.57;3.43;;;1.30;99.90;;;;;;5098123;28;20467;-74
2022/03/06 07:27:32;;;;;;;10.10;3.40;;;1.40;99.90;;;;;;5096700;28;20044;-75
2022/03/06 07:29:59;;;;;;;6.77;3.40;;;1.50;99.90;;;;;;5073904;28;20723;-74
2022/03/06 07:32:24;;;;;;;6.83;3.17;;;1.70;99.90;;;;;;5059431;28;20043;-74
2022/03/06 07:34:50;;;;;;;10.00;3.40;;;1.80;99.90;;;;;;5099914;28;20297;-74
2022/03/06 07:37:16;;;;;;;3.87;2.57;;;2.00;99.90;;;;;;5074375;28;20048;-76
2022/03/06 07:39:42;;;;;;;7.30;3.17;;;2.10;99.90;;;;;;5072368;28;20055;-75
2022/03/06 07:42:07;;;;;;;5.00;3.13;;;2.10;99.90;;;;;;5057938;28;20048;-76
2022/03/06 07:44:34;;;;;;;7.33;3.30;;;2.20;99.90;;;;;;5075861;28;20310;-73
2022/03/06 07:47:01;;;;;;;4.20;2.60;;;2.60;99.90;;;;;;5067059;28;20347;-74
2022/03/06 07:49:27;;;;;;;5.17;3.00;;;2.80;99.90;;;;;;5073119;28;20047;-74
2022/03/06 07:51:52;;;;;;;6.53;2.80;;;3.20;99.90;;;;;;5064558;28;20882;-75
2022/03/06 07:54:18;;;;;;;5.17;2.67;;;3.60;99.90;;;;;;5114006;27;20044;-73
2022/03/06 07:56:45;;;;;;;4.40;2.57;;;3.90;99.90;;;;;;5112069;28;20062;-74
2022/03/06 07:59:11;;;;;;;6.67;2.43;;;4.00;99.90;;;;;;5110427;27;20506;-75
2022/03/06 08:01:37;;;;;;;5.83;2.50;;;4.10;99.90;;;;;;5076686;28;20334;-75
2022/03/06 08:04:04;;;;;;;4.70;2.40;;;4.00;99.90;;;;;;5078402;28;20759;-76
2022/03/06 08:06:30;;;;;;;4.43;2.23;;;4.00;99.90;;;;;;5064610;28;20036;-74
2022/03/06 08:08:56;;;;;;;5.83;2.10;;;4.00;99.90;;;;;;5062011;28;20298;-75
2022/03/06 08:11:22;;;;;;;5.43;2.40;;;4.00;99.90;;;;;;5063028;28;20040;-74
2022/03/06 08:13:47;;;;;;;3.90;2.27;;;3.90;99.90;;;;;;5108309;28;20044;-76
2022/03/06 08:16:13;;;;;;;5.53;2.63;;;3.90;99.90;;;;;;5078276;28;20054;-75
2022/03/06 08:18:39;;;;;;;4.90;2.20;;;3.80;99.90;;;;;;5057897;28;20036;-75
2022/03/06 08:21:06;;;;;;;4.20;2.00;;;3.70;99.90;;;;;;5080573;28;20548;-76
2022/03/06 08:23:32;;;;;;;3.53;2.00;;;3.70;99.90;;;;;;5075377;28;20050;-75
2022/03/06 08:25:59;;;;;;;5.83;2.30;;;3.60;99.90;;;;;;5063722;28;20310;-74
2022/03/06 08:28:25;;;;;;;4.80;2.10;;;3.70;99.90;;;;;;5103820;27;20048;-75
2022/03/06 08:30:51;;;;;;;6.80;2.10;;;3.70;99.90;;;;;;5093377;28;20312;-75
2022/03/06 08:33:16;;;;;;;4.00;1.97;;;3.80;99.90;;;;;;5076096;28;20089;-75
2022/03/06 08:35:42;;;;;;;4.10;2.23;;;3.80;99.90;;;;;;5071182;28;20036;-75
2022/03/06 08:38:09;;;;;;;5.30;2.20;;;3.80;99.90;;;;;;5090787;28;20161;-76
2022/03/06 08:40:35;;;;;;;4.90;2.10;;;3.80;99.90;;;;;;5063474;28;20048;-75
2022/03/06 08:43:01;;;;;;;4.00;2.30;;;3.80;99.90;;;;;;5094463;28;20297;-76
2022/03/06 08:45:27;;;;;;;4.60;1.90;;;4.00;99.90;;;;;;5099568;28;20316;-76
2022/03/06 08:47:53;;;;;;;4.87;2.43;;;4.40;99.90;;;;;;5072304;28;20067;-76
2022/03/06 08:50:19;;;;;;;4.87;2.00;;;4.80;99.90;;;;;;5105363;28;20044;-77
2022/03/06 08:52:44;;;;;;;3.90;2.07;;;5.30;99.90;;;;;;5105326;28;20349;-76
2022/03/06 08:55:11;;;;;;;4.10;2.17;;;5.90;99.90;;;;;;5117266;28;20058;-75
2022/03/06 08:57:37;;;;;;;3.17;2.00;;;6.10;99.90;;;;;;5072668;28;20046;-75
2022/03/06 09:00:05;;;;;;;5.83;2.10;;;6.20;99.90;;;;;;5078277;28;20047;-77
2022/03/06 09:02:31;;;;;;;4.00;2.10;;;6.30;99.90;;;;;;5057975;28;20110;-76
2022/03/06 09:04:57;;;;;;;7.10;2.33;;;6.30;98.40;;;;;;5067072;28;20055;-78
2022/03/06 09:07:23;;;;;;;4.93;2.00;;;6.10;98.30;;;;;;5081503;28;20044;-75
2022/03/06 09:09:49;;;;;;;5.70;2.20;;;6.10;99.20;;;;;;5089127;28;20128;-77
2022/03/06 09:12:19;;;;;;;4.57;2.27;;;6.10;98.60;;;;;;5072821;28;20399;-77
2022/03/06 09:14:45;;;;;;;4.77;2.00;;;6.10;97.70;;;;;;5074315;28;20052;-74
2022/03/06 09:17:11;;;;;;;4.53;1.70;;;6.10;98.50;;;;;;5059415;28;20103;-76
2022/03/06 09:19:38;;;;;;;4.53;2.40;;;6.40;98.50;;;;;;5070316;28;20032;-75
2022/03/06 09:22:04;;;;;;;4.80;2.40;;;6.60;98.40;;;;;;5064403;28;20044;-78
2022/03/06 09:24:31;;;;;;;4.77;2.10;;;6.60;96.70;;;;;;5070453;28;20083;-79
2022/03/06 09:26:56;;;;;;;6.17;2.53;;;6.70;96.10;;;;;;5065021;28;20112;-77
2022/03/06 09:29:24;;;;;;;3.67;2.00;;;7.30;96.80;;;;;;5063887;28;20123;-75
2022/03/06 09:31:50;;;;;;;3.87;2.10;;;8.40;98.10;;;;;;5092599;28;20056;-76
2022/03/06 09:34:16;;;;;;;3.53;1.80;;;9.70;96.20;;;;;;5093577;28;20046;-76
2022/03/06 09:36:41;;;;;;;5.33;1.90;;;10.80;93.70;;;;;;5059940;28;20131;-75
2022/03/06 09:39:07;;;;;;;3.30;1.90;;;11.80;90.70;;;;;;5061199;28;20436;-78
2022/03/06 09:41:38;;;;;;;3.57;2.00;;;12.80;90.00;;;;;;5099055;28;20116;-80
2022/03/06 09:44:06;;;;;;;4.73;1.90;;;13.90;79.30;;;;;;5080879;28;20044;-78
2022/03/06 09:46:36;;;;;;;4.33;2.03;;;14.50;71.20;;;;;;5076000;28;20127;-78
2022/03/06 09:49:03;;;;;;;6.10;2.33;;;14.90;66.50;;;;;;5055520;28;20266;-76
2022/03/06 09:51:32;;;;;;;3.23;1.90;;;15.50;64.20;;;;;;5067073;28;20040;-78
2022/03/06 09:53:57;;;;;;;5.03;1.90;;;15.90;57.60;;;;;;5085741;28;20241;-79
2022/03/06 09:56:24;;;;;;;3.97;1.80;;;15.80;50.70;;;;;;5083357;28;20052;-79
2022/03/06 09:58:50;;;;;;;4.43;1.80;;;16.00;51.20;;;;;;5066212;28;20040;-78
2022/03/06 10:01:16;;;;;;;4.80;1.77;;;16.10;50.60;;;;;;5060237;28;20036;-75
2022/03/06 10:03:43;;;;;;;3.90;1.70;;;16.20;48.50;;;;;;5038311;28;20715;-76
2022/03/06 10:06:12;;;;;;;3.80;1.93;;;16.80;51.90;;;;;;5056360;28;20044;-77
2022/03/06 10:08:38;;;;;;;5.33;1.70;;;17.50;50.40;;;;;;5075764;28;20429;-77
2022/03/06 10:11:06;;;;;;;4.80;1.80;;;18.20;50.00;;;;;;5090719;28;20036;-75
2022/03/06 10:13:34;;;;;;;4.00;2.03;;;18.60;46.00;;;;;;5092963;28;20048;-77
2022/03/06 10:16:06;;;;;;;2.50;1.90;;;18.90;45.80;;;;;;5091727;28;20048;-79
2022/03/06 10:18:34;;;;;;;3.70;1.83;;;18.70;41.40;;;;;;5096429;28;20400;-78
2022/03/06 10:21:17;;;;;;;3.57;1.87;;;18.50;42.50;;;;;;5092892;28;20543;-75
2022/03/06 10:23:44;;;;;;;4.17;1.90;;;18.90;43.40;;;;;;5076355;28;20040;-77
2022/03/06 10:26:12;;;;;;;5.73;2.27;;;19.30;42.20;;;;;;5072246;28;20040;-77
2022/03/06 10:28:55;;;;;;;3.60;1.67;;;19.30;39.90;;;;;;5079637;28;20048;-76
2022/03/06 10:31:23;;;;;;;3.60;1.77;;;19.20;40.40;;;;;;5093002;28;20040;-75
2022/03/06 10:34:02;;;;;;;4.17;2.00;;;19.40;41.80;;;;;;5054355;28;20052;-75
2022/03/06 10:36:38;;;;;;;4.53;1.90;;;19.50;39.60;;;;;;5088720;28;20032;-76
2022/03/06 10:39:10;;;;;;;2.97;1.50;;;19.30;40.40;;;;;;5095712;27;20063;-76
2022/03/06 10:41:38;;;;;;;2.30;1.53;;;19.20;40.60;;;;;;5091420;28;20439;-77
2022/03/06 10:44:05;;;;;;;3.50;1.90;;;19.00;38.30;;;;;;5101592;27;20043;-76
2022/03/06 10:46:34;;;;;;;3.90;1.60;;;18.40;38.90;;;;;;5056877;28;20032;-75
2022/03/06 10:49:07;;;;;;;4.07;1.90;;;18.40;39.90;;;;;;5036951;28;20097;-76
2022/03/06 10:51:39;;;;;;;6.85;1.77;;;17.90;38.50;;;;;;5056306;28;20571;-78
2022/03/06 10:54:04;;;;;;;3.57;1.70;;;17.60;38.10;;;;;;5074700;28;20070;-77
2022/03/06 10:56:30;;;;;;;3.57;2.00;;;17.40;39.80;;;;;;5056475;28;20488;-77
2022/03/06 10:58:57;;;;;;;4.13;1.67;;;17.60;40.00;;;;;;5060438;28;20474;-75
2022/03/06 11:01:23;;;;;;;3.63;2.00;;;17.90;40.30;;;;;;5067825;28;20044;-75
2022/03/06 11:03:50;;;;;;;6.13;2.23;;;18.20;39.80;;;;;;5075413;28;20097;-77
2022/03/06 11:06:19;;;;;;;3.43;1.70;;;18.50;40.50;;;;;;5072580;28;20079;-76
2022/03/06 11:08:47;;;;;;;5.00;1.87;;;18.80;38.60;;;;;;5056781;28;20040;-76
2022/03/06 11:11:14;;;;;;;4.53;1.80;;;18.90;39.90;;;;;;5092520;27;20098;-76
2022/03/06 11:13:40;;;;;;;4.13;2.00;;;19.20;39.10;;;;;;5091840;28;20130;-79
2022/03/06 11:16:06;;;;;;;2.90;1.87;;;19.40;37.70;;;;;;5057560;28;20132;-76
2022/03/06 11:18:32;;;;;;;4.57;1.87;;;19.50;39.10;;;;;;5106042;28;20043;-77
2022/03/06 11:21:01;;;;;;;3.43;2.13;;;19.50;38.50;;;;;;5070612;28;20058;-73
2022/03/06 11:23:33;;;;;;;4.07;2.10;;;19.60;37.90;;;;;;5102597;28;20059;-73
2022/03/06 11:26:45;;;;;;;3.83;2.00;;;19.30;35.90;;;;;;5063790;28;20401;-74
2022/03/06 11:29:30;;;;;;;3.70;1.80;;;18.90;38.20;;;;;;5098585;28;20044;-74
2022/03/06 11:32:04;;;;;;;3.73;1.80;;;19.20;38.60;;;;;;5070675;28;20044;-75
2022/03/06 11:34:32;;;;;;;3.42;1.80;;;19.50;38.90;;;;;;5071223;28;20496;-75
2022/03/06 11:37:03;;;;;;;3.77;1.93;;;19.50;37.90;;;;;;5088346;28;20522;-75
2022/03/06 11:39:46;;;;;;;4.60;2.10;;;19.50;38.20;;;;;;5105033;28;20709;-75
2022/03/06 11:42:52;;;;;;;4.07;2.00;;;19.50;38.00;;;;;;5092012;28;20043;-75
2022/03/06 11:45:47;;;;;;;3.63;2.07;;;19.30;38.50;;;;;;5071677;28;20044;-73
2022/03/06 11:48:47;;;;;;;2.47;1.77;;;19.20;38.40;;;;;;5070064;28;20045;-73
2022/03/06 11:51:28;;;;;;;5.53;1.90;;;19.30;38.80;;;;;;5063226;28;20048;-75
2022/03/06 11:53:56;;;;;;;3.87;2.00;;;19.20;38.20;;;;;;5050460;28;20055;-76
2022/03/06 11:56:49;;;;;;;3.60;2.23;;;18.80;38.60;;;;;;5098173;28;20040;-76
2022/03/06 11:59:44;;;;;;;4.67;2.23;;;18.70;38.90;;;;;;5064089;28;20060;-74
2022/03/06 12:02:18;;;;;;;4.00;1.73;;;18.70;39.20;;;;;;5061978;28;20419;-75
2022/03/06 12:04:46;;;;;;;4.33;2.20;;;18.50;39.20;;;;;;5036024;28;20045;-73
2022/03/06 12:07:15;;;;;;;4.07;2.13;;;18.40;39.00;;;;;;5045952;28;20043;-77
2022/03/06 12:09:42;;;;;;;5.83;2.63;;;18.30;39.50;;;;;;5052756;28;20114;-73
2022/03/06 12:12:10;;;;;;;5.70;2.30;;;18.40;39.60;;;;;;5068589;28;20047;-74
2022/03/06 12:14:37;;;;;;;5.13;1.97;;;18.10;38.90;;;;;;5072747;28;20050;-74
2022/03/06 12:17:37;;;;;;;5.53;1.83;;;17.30;38.50;;;;;;5090452;28;20591;-75
2022/03/06 12:20:27;;;;;;;3.93;2.00;;;17.00;40.90;;;;;;5041319;28;20051;-74
2022/03/06 12:23:04;;;;;;;4.97;2.33;;;17.10;40.80;;;;;;5028750;28;20052;-73
2022/03/06 12:25:33;;;;;;;4.20;2.00;;;17.00;41.20;;;;;;5039672;28;20076;-75
2022/03/06 12:28:17;;;;;;;4.73;2.10;;;17.00;41.30;;;;;;5050100;28;20049;-76
2022/03/06 12:30:43;;;;;;;6.57;2.05;;;17.00;40.90;;;;;;5032896;28;20731;-73
2022/03/06 12:33:32;;;;;;;4.83;2.13;;;17.00;41.60;;;;;;5052820;28;20079;-74
2022/03/06 12:36:26;;;;;;;6.27;2.20;;;16.80;41.40;;;;;;5066428;28;20056;-74
2022/03/06 12:38:59;;;;;;;5.55;2.40;;;16.40;40.60;;;;;;5019811;28;20050;-73
2022/03/06 12:41:27;;;;;;;3.67;2.00;;;15.90;41.70;;;;;;5049935;28;20048;-72
2022/03/06 12:44:03;;;;;;;3.00;2.00;;;15.40;42.20;;;;;;5036692;28;20054;-75
2022/03/06 12:46:29;;;;;;;4.00;2.10;;;14.50;43.20;;;;;;5051887;28;20119;-73
2022/03/06 12:48:55;;;;;;;3.47;2.07;;;13.70;43.90;;;;;;5028423;28;20499;-74